Time;durP1;ratioP1;P1;durP2;ratioP2;P2;SDS_P1;SDS_P2;PMS_P1;PMS_P2;Temp;Humidity;BMP_temperature;BMP_pressure;BME280_temperature;BME280_humidity;BME280_pressure;Samples;Min_cycle;Max_cycle;Signal;HPM_P1;HPM_P2
2022/12/19 00:01:20;;;;;;;34.83;24.50;;;-0.20;99.90;;;;;;5094048;28;20464;-59
2022/12/19 00:03:49;;;;;;;31.33;22.77;;;-0.20;99.90;;;;;;5094040;28;20495;-58
2022/12/19 00:06:17;;;;;;;38.90;25.03;;;-0.20;99.90;;;;;;5094092;28;20458;-58
2022/12/19 00:08:48;;;;;;;37.63;24.17;;;-0.20;99.90;;;;;;5094582;28;20463;-58
2022/12/19 00:11:17;;;;;;;41.63;25.63;;;-0.20;99.90;;;;;;5093830;28;20818;-58
2022/12/19 00:13:44;;;;;;;41.03;26.87;;;-0.20;99.90;;;;;;5094487;28;20837;-59
2022/12/19 00:16:14;;;;;;;41.90;25.50;;;-0.20;99.90;;;;;;5093913;28;20535;-58
2022/12/19 00:18:44;;;;;;;37.40;23.90;;;-0.10;99.90;;;;;;5094398;28;20542;-59
2022/12/19 00:21:17;;;;;;;40.17;25.67;;;-0.10;99.90;;;;;;5093795;28;20521;-59
2022/12/19 00:23:45;;;;;;;40.33;25.13;;;-0.10;99.90;;;;;;5094136;28;20813;-59
2022/12/19 00:26:14;;;;;;;42.50;22.80;;;-0.20;99.90;;;;;;5094081;28;20475;-58
2022/12/19 00:28:42;;;;;;;36.57;23.80;;;-0.20;99.90;;;;;;5094082;28;20482;-58
2022/12/19 00:31:13;;;;;;;39.60;22.33;;;-0.10;99.90;;;;;;5093592;28;20459;-58
2022/12/19 00:33:40;;;;;;;40.30;23.60;;;-0.10;99.90;;;;;;5093987;28;20483;-58
2022/12/19 00:36:12;;;;;;;40.07;22.70;;;-0.10;99.90;;;;;;5093634;28;20479;-58
2022/12/19 00:38:42;;;;;;;43.67;24.00;;;-0.10;99.90;;;;;;5093677;28;20455;-59
2022/12/19 00:41:10;;;;;;;39.00;23.10;;;0.00;99.90;;;;;;5093454;28;20570;-58
2022/12/19 00:43:38;;;;;;;41.10;24.63;;;-0.10;99.90;;;;;;5093878;28;20487;-58
2022/12/19 00:46:07;;;;;;;43.00;24.43;;;-0.10;99.90;;;;;;5093827;28;20444;-58
2022/12/19 00:48:35;;;;;;;43.10;26.27;;;0.10;99.90;;;;;;5093557;28;20483;-58
2022/12/19 00:51:04;;;;;;;50.30;27.27;;;0.10;99.90;;;;;;5093480;28;20555;-58
2022/12/19 00:53:33;;;;;;;40.17;24.17;;;0.10;99.90;;;;;;5093806;28;20447;-58
2022/12/19 00:56:02;;;;;;;40.43;24.47;;;-0.10;99.90;;;;;;5093461;28;20478;-58
2022/12/19 00:58:29;;;;;;;38.23;23.10;;;-0.20;99.90;;;;;;5093429;28;20937;-58
2022/12/19 01:00:57;;;;;;;43.03;24.97;;;-0.20;99.90;;;;;;5093209;28;20468;-58
2022/12/19 01:03:25;;;;;;;42.37;24.20;;;-0.10;99.90;;;;;;5093251;28;20479;-58
2022/12/19 01:05:53;;;;;;;40.20;23.20;;;-0.10;99.90;;;;;;5093680;28;20447;-58
2022/12/19 01:08:20;;;;;;;43.60;24.20;;;0.00;99.90;;;;;;5093138;28;20527;-58
2022/12/19 01:10:50;;;;;;;39.30;24.10;;;0.10;99.90;;;;;;5093071;28;20463;-58
2022/12/19 01:13:19;;;;;;;36.10;23.63;;;0.10;99.90;;;;;;5093305;28;20488;-59
2022/12/19 01:15:47;;;;;;;42.03;25.43;;;0.10;99.90;;;;;;5093504;28;20470;-59
2022/12/19 01:18:14;;;;;;;41.13;25.10;;;0.10;99.90;;;;;;5093580;28;20475;-58
2022/12/19 01:20:44;;;;;;;33.97;24.30;;;0.10;99.90;;;;;;5093143;28;20521;-58
2022/12/19 01:23:11;;;;;;;38.00;24.17;;;0.20;99.90;;;;;;5094093;28;20550;-58
2022/12/19 01:25:39;;;;;;;33.97;22.73;;;0.20;99.90;;;;;;5097166;28;20893;-59
2022/12/19 01:28:10;;;;;;;41.27;24.10;;;0.20;99.90;;;;;;5097086;28;20483;-58
2022/12/19 01:30:40;;;;;;;45.63;25.20;;;0.20;99.90;;;;;;5097237;28;20467;-59
2022/12/19 01:33:09;;;;;;;34.50;24.07;;;0.20;99.90;;;;;;5097378;28;20443;-59
2022/12/19 01:35:36;;;;;;;37.93;23.93;;;0.40;99.90;;;;;;5097236;28;20443;-59
2022/12/19 01:38:04;;;;;;;40.57;23.87;;;0.40;99.90;;;;;;5097336;28;20483;-59
2022/12/19 01:40:32;;;;;;;38.93;23.87;;;0.40;99.90;;;;;;5096499;28;20570;-58
2022/12/19 01:43:01;;;;;;;37.40;24.30;;;0.40;99.90;;;;;;5097063;28;20526;-58
2022/12/19 01:45:31;;;;;;;35.80;24.60;;;0.50;99.90;;;;;;5096942;28;20834;-58
2022/12/19 01:48:07;;;;;;;42.60;27.33;;;0.40;99.90;;;;;;5097126;28;20510;-58
2022/12/19 01:50:38;;;;;;;32.50;22.03;;;0.30;99.90;;;;;;5096733;28;21023;-58
2022/12/19 01:53:07;;;;;;;38.90;23.97;;;0.40;99.90;;;;;;5096724;28;20912;-58
2022/12/19 01:55:36;;;;;;;40.00;22.10;;;0.40;99.90;;;;;;5096594;28;20443;-59
2022/12/19 01:58:03;;;;;;;39.93;24.90;;;0.30;99.90;;;;;;5096633;28;20952;-59
2022/12/19 02:00:32;;;;;;;39.17;24.40;;;0.40;99.90;;;;;;5096764;28;20808;-58
2022/12/19 02:03:06;;;;;;;46.73;26.77;;;0.50;99.90;;;;;;5096470;28;20535;-58
2022/12/19 02:05:34;;;;;;;38.10;24.07;;;0.50;99.90;;;;;;5096378;28;20512;-58
2022/12/19 02:08:02;;;;;;;33.87;23.23;;;0.50;99.90;;;;;;5096617;28;20937;-58
2022/12/19 02:10:29;;;;;;;41.20;23.30;;;0.60;99.90;;;;;;5096623;28;20502;-58
2022/12/19 02:12:56;;;;;;;42.23;25.07;;;0.50;99.90;;;;;;5096080;28;20447;-58
2022/12/19 02:15:27;;;;;;;41.20;25.90;;;0.50;99.90;;;;;;5096285;28;20443;-58
2022/12/19 02:18:09;;;;;;;33.37;23.63;;;0.50;99.90;;;;;;5096248;28;20934;-58
2022/12/19 02:21:11;;;;;;;41.20;23.37;;;0.60;99.90;;;;;;5096146;28;20554;-58
2022/12/19 02:24:14;;;;;;;38.37;24.17;;;0.70;99.90;;;;;;5096058;28;20459;-58
2022/12/19 02:26:56;;;;;;;37.07;23.07;;;0.70;99.90;;;;;;5096059;28;20486;-58
2022/12/19 02:29:55;;;;;;;39.87;24.37;;;0.70;99.90;;;;;;5096024;28;20497;-58
2022/12/19 02:32:31;;;;;;;42.20;24.77;;;0.70;99.90;;;;;;5096029;28;20428;-59
2022/12/19 02:35:07;;;;;;;41.93;23.97;;;0.60;99.90;;;;;;5094987;28;20936;-58
2022/12/19 02:37:40;;;;;;;42.60;25.80;;;0.60;99.90;;;;;;5095842;28;21006;-59
2022/12/19 02:40:13;;;;;;;36.37;23.47;;;0.60;99.90;;;;;;5095537;28;20526;-58
2022/12/19 02:42:44;;;;;;;38.47;24.43;;;0.70;99.90;;;;;;5095652;28;20458;-59
2022/12/19 02:45:14;;;;;;;35.97;23.77;;;0.90;99.90;;;;;;5095841;28;20499;-59
2022/12/19 02:47:43;;;;;;;40.87;24.30;;;0.90;99.90;;;;;;5095999;28;20455;-59
2022/12/19 02:50:12;;;;;;;38.27;25.80;;;0.70;99.90;;;;;;5095536;28;20474;-59
2022/12/19 02:52:48;;;;;;;35.00;25.67;;;0.80;99.90;;;;;;5095509;28;20477;-58
2022/12/19 02:55:20;;;;;;;41.43;27.50;;;0.70;99.90;;;;;;5095593;28;20473;-58
2022/12/19 02:58:00;;;;;;;41.00;23.73;;;0.90;99.90;;;;;;5095429;28;20460;-58
2022/12/19 03:00:28;;;;;;;39.00;25.53;;;0.90;99.90;;;;;;5095863;28;20472;-58
2022/12/19 03:03:08;;;;;;;37.37;24.40;;;0.90;99.90;;;;;;5095418;28;20968;-58
2022/12/19 03:05:43;;;;;;;43.40;25.97;;;1.00;99.90;;;;;;5095542;28;20827;-58
2022/12/19 03:08:21;;;;;;;36.87;23.40;;;1.10;99.90;;;;;;5095571;28;20483;-58
2022/12/19 03:10:56;;;;;;;37.93;22.97;;;1.20;99.90;;;;;;5095238;28;20503;-59
2022/12/19 03:13:27;;;;;;;38.80;23.47;;;1.30;99.90;;;;;;5095301;28;20462;-59
2022/12/19 03:15:54;;;;;;;37.77;23.57;;;1.30;99.90;;;;;;5095579;28;20419;-58
2022/12/19 03:18:23;;;;;;;40.40;25.77;;;1.20;99.90;;;;;;5095022;28;20858;-58
2022/12/19 03:20:57;;;;;;;34.20;24.03;;;1.20;99.90;;;;;;5095186;28;20520;-58
2022/12/19 03:23:24;;;;;;;32.97;21.90;;;1.30;99.90;;;;;;5094973;28;20910;-58
2022/12/19 03:25:57;;;;;;;44.30;25.67;;;1.30;99.90;;;;;;5094846;28;21032;-58
2022/12/19 03:28:30;;;;;;;46.67;27.60;;;1.20;99.90;;;;;;5094913;28;20436;-58
2022/12/19 03:30:59;;;;;;;41.00;25.87;;;1.10;99.90;;;;;;5094817;28;20517;-58
2022/12/19 03:33:32;;;;;;;35.70;24.90;;;1.10;99.90;;;;;;5094943;28;20447;-59
2022/12/19 03:36:03;;;;;;;44.63;28.10;;;1.10;99.90;;;;;;5095047;28;20420;-59
2022/12/19 03:38:32;;;;;;;42.40;28.47;;;1.10;99.90;;;;;;5095068;28;20447;-59
2022/12/19 03:41:00;;;;;;;39.70;26.50;;;1.10;99.90;;;;;;5094536;28;21060;-59
2022/12/19 03:43:29;;;;;;;41.40;24.77;;;1.10;99.90;;;;;;5094373;28;20449;-59
2022/12/19 03:45:58;;;;;;;39.37;25.70;;;1.10;99.90;;;;;;5093988;28;20906;-59
2022/12/19 03:48:32;;;;;;;40.80;27.77;;;1.30;99.90;;;;;;5093799;28;20447;-59
2022/12/19 03:51:09;;;;;;;41.70;26.70;;;1.20;99.90;;;;;;5094674;28;20459;-58
2022/12/19 03:53:48;;;;;;;37.57;23.70;;;1.20;99.90;;;;;;5094863;28;20431;-59
2022/12/19 03:56:22;;;;;;;41.23;24.10;;;1.30;99.90;;;;;;5094453;28;20463;-58
2022/12/19 03:58:57;;;;;;;37.30;25.37;;;1.30;99.90;;;;;;5094347;28;20428;-58
2022/12/19 04:01:26;;;;;;;41.73;25.90;;;1.40;99.90;;;;;;5094262;28;20905;-58
2022/12/19 04:03:55;;;;;;;47.93;25.30;;;1.40;99.90;;;;;;5094544;28;20530;-59
2022/12/19 04:06:23;;;;;;;41.67;26.10;;;1.40;99.90;;;;;;5094585;28;20531;-59
2022/12/19 04:08:50;;;;;;;41.17;24.50;;;1.40;99.90;;;;;;5094649;28;20823;-59
2022/12/19 04:11:20;;;;;;;36.00;24.33;;;1.40;99.90;;;;;;5094204;28;20463;-58
2022/12/19 04:13:51;;;;;;;36.57;23.23;;;1.40;99.90;;;;;;5094021;28;20941;-59
2022/12/19 04:16:24;;;;;;;41.80;25.20;;;1.50;99.90;;;;;;5094199;28;20504;-59
2022/12/19 04:18:56;;;;;;;33.30;22.27;;;1.50;99.90;;;;;;5094317;28;20469;-58
2022/12/19 04:21:29;;;;;;;39.07;22.80;;;1.60;99.90;;;;;;5093909;28;20420;-58
2022/12/19 04:24:04;;;;;;;31.23;23.53;;;1.70;99.90;;;;;;5094130;28;20420;-59
2022/12/19 04:26:32;;;;;;;38.20;21.43;;;1.90;99.90;;;;;;5093849;28;20757;-59
2022/12/19 04:29:02;;;;;;;35.03;21.30;;;1.90;99.90;;;;;;5093614;28;20443;-58
2022/12/19 04:31:31;;;;;;;32.60;22.73;;;2.00;99.90;;;;;;5094061;28;20471;-58
2022/12/19 04:33:59;;;;;;;34.37;21.93;;;2.00;99.90;;;;;;5093770;28;21125;-58
2022/12/19 04:36:28;;;;;;;36.03;22.37;;;2.00;99.90;;;;;;5093987;28;20534;-58
2022/12/19 04:38:55;;;;;;;33.50;21.57;;;2.00;99.90;;;;;;5093784;28;20459;-58
2022/12/19 04:41:22;;;;;;;36.10;22.40;;;2.10;99.90;;;;;;5093584;28;20488;-58
2022/12/19 04:43:50;;;;;;;31.33;19.83;;;2.00;99.90;;;;;;5093474;28;20439;-58
2022/12/19 04:46:17;;;;;;;33.47;22.03;;;2.10;99.90;;;;;;5093498;28;20517;-59
2022/12/19 04:48:44;;;;;;;33.37;21.60;;;2.10;99.90;;;;;;5093709;28;20475;-58
2022/12/19 04:51:13;;;;;;;34.20;21.97;;;2.20;99.90;;;;;;5093664;28;20463;-59
2022/12/19 04:53:40;;;;;;;35.43;21.00;;;2.20;99.90;;;;;;5093538;28;20504;-59
2022/12/19 04:56:09;;;;;;;34.80;19.97;;;2.30;99.90;;;;;;5093429;28;20479;-58
2022/12/19 04:58:36;;;;;;;33.80;19.97;;;2.30;99.90;;;;;;5093110;28;20483;-58
2022/12/19 05:01:04;;;;;;;31.73;19.90;;;2.30;99.90;;;;;;5093358;28;20467;-58
2022/12/19 05:03:33;;;;;;;31.23;21.83;;;2.30;99.90;;;;;;5093671;28;20858;-59
2022/12/19 05:06:07;;;;;;;32.30;20.80;;;2.30;99.90;;;;;;5093207;28;20479;-59
2022/12/19 05:08:37;;;;;;;30.40;19.27;;;2.30;99.90;;;;;;5093691;28;20953;-59
2022/12/19 05:11:05;;;;;;;36.97;19.43;;;2.40;99.90;;;;;;5093589;28;20550;-58
2022/12/19 05:13:33;;;;;;;29.90;17.87;;;2.40;99.90;;;;;;5093111;28;20483;-58
2022/12/19 05:16:02;;;;;;;29.07;20.07;;;2.50;99.90;;;;;;5093782;28;20443;-58
2022/12/19 05:18:30;;;;;;;27.57;17.83;;;2.50;99.90;;;;;;5093150;28;20451;-58
2022/12/19 05:20:57;;;;;;;32.10;18.90;;;2.50;99.90;;;;;;5093028;28;20463;-59
2022/12/19 05:23:25;;;;;;;38.83;19.00;;;2.40;99.90;;;;;;5093120;28;20465;-59
2022/12/19 05:25:53;;;;;;;28.53;17.57;;;2.50;99.90;;;;;;5093148;28;20486;-59
2022/12/19 05:28:21;;;;;;;28.83;18.83;;;2.50;99.90;;;;;;5093181;28;20454;-59
2022/12/19 05:30:48;;;;;;;23.50;18.83;;;2.60;99.90;;;;;;5092956;28;20491;-58
2022/12/19 05:33:15;;;;;;;25.80;16.87;;;2.60;99.90;;;;;;5093351;28;20447;-58
2022/12/19 05:35:43;;;;;;;24.80;15.97;;;2.60;99.90;;;;;;5093292;28;20448;-58
2022/12/19 05:38:10;;;;;;;24.97;18.20;;;2.60;99.90;;;;;;5093537;28;20467;-58
2022/12/19 05:40:37;;;;;;;28.40;18.73;;;2.60;99.90;;;;;;5093189;28;20486;-58
2022/12/19 05:43:06;;;;;;;31.17;17.33;;;2.70;99.90;;;;;;5093266;28;20475;-58
2022/12/19 05:45:34;;;;;;;30.93;19.80;;;2.70;99.90;;;;;;5093058;28;20540;-58
2022/12/19 05:48:01;;;;;;;29.00;17.23;;;2.70;99.90;;;;;;5091610;28;20454;-58
2022/12/19 05:50:28;;;;;;;25.10;16.83;;;2.70;99.90;;;;;;5092923;28;20525;-58
2022/12/19 05:52:56;;;;;;;27.30;17.73;;;2.60;99.90;;;;;;5092867;28;20447;-58
2022/12/19 05:55:23;;;;;;;29.10;18.00;;;2.60;99.90;;;;;;5093036;28;20934;-58
2022/12/19 05:57:50;;;;;;;27.50;16.83;;;2.70;99.90;;;;;;5092871;28;20447;-59
2022/12/19 06:00:20;;;;;;;24.23;18.10;;;2.70;99.90;;;;;;5093035;28;20862;-59
2022/12/19 06:02:47;;;;;;;33.53;19.50;;;2.70;99.90;;;;;;5092806;28;20930;-59
2022/12/19 06:05:15;;;;;;;29.70;17.60;;;2.70;99.90;;;;;;5093087;28;20968;-58
2022/12/19 06:07:43;;;;;;;27.70;17.93;;;2.70;99.90;;;;;;5092932;28;20487;-59
2022/12/19 06:10:10;;;;;;;28.20;18.80;;;2.70;99.90;;;;;;5093896;28;20477;-59
2022/12/19 06:12:38;;;;;;;27.83;19.63;;;2.70;99.90;;;;;;5096230;28;20462;-59
2022/12/19 06:15:06;;;;;;;25.90;16.33;;;2.70;99.90;;;;;;5096370;28;20435;-59
2022/12/19 06:17:34;;;;;;;22.40;16.63;;;2.70;99.90;;;;;;5096483;28;20531;-58
2022/12/19 06:20:02;;;;;;;28.57;17.83;;;2.70;99.90;;;;;;5095990;28;20463;-58
2022/12/19 06:22:29;;;;;;;25.63;16.70;;;2.70;99.90;;;;;;5096083;28;20444;-59
2022/12/19 06:24:56;;;;;;;27.33;17.83;;;2.70;99.90;;;;;;5095875;28;20945;-59
2022/12/19 06:27:24;;;;;;;28.00;19.10;;;2.70;99.90;;;;;;5096167;28;20991;-59
2022/12/19 06:29:51;;;;;;;24.90;16.27;;;2.70;99.90;;;;;;5096135;28;20467;-59
2022/12/19 06:32:18;;;;;;;23.50;14.90;;;2.80;99.90;;;;;;5096248;28;20447;-59
2022/12/19 06:34:47;;;;;;;31.73;18.20;;;2.80;99.90;;;;;;5095611;28;20804;-58
2022/12/19 06:37:14;;;;;;;23.30;17.80;;;2.90;99.90;;;;;;5096073;28;20451;-59
2022/12/19 06:39:42;;;;;;;24.40;18.20;;;2.80;99.90;;;;;;5095514;28;20532;-60
2022/12/19 06:42:23;;;;;;;23.40;18.60;;;2.90;99.90;;;;;;5095796;28;20443;-59
2022/12/19 06:44:51;;;;;;;27.27;17.57;;;2.90;99.90;;;;;;5095629;28;20422;-59
2022/12/19 06:47:19;;;;;;;25.40;17.93;;;3.00;99.90;;;;;;5095788;28;20448;-59
2022/12/19 06:49:49;;;;;;;26.23;15.73;;;3.00;99.90;;;;;;5095771;28;20471;-59
2022/12/19 06:52:16;;;;;;;23.03;17.03;;;3.00;99.90;;;;;;5095739;28;20452;-59
2022/12/19 06:54:43;;;;;;;23.57;16.17;;;3.00;99.90;;;;;;5095577;28;20471;-60
2022/12/19 06:57:11;;;;;;;27.27;17.33;;;3.00;99.90;;;;;;5095390;28;20492;-59
2022/12/19 06:59:38;;;;;;;25.93;16.30;;;3.00;99.90;;;;;;5095187;28;20463;-59
2022/12/19 07:02:16;;;;;;;28.37;17.23;;;3.10;99.90;;;;;;5095367;28;20572;-59
2022/12/19 07:04:49;;;;;;;23.37;16.93;;;3.10;99.90;;;;;;5095646;28;20510;-59
2022/12/19 07:07:17;;;;;;;26.70;17.43;;;3.10;99.90;;;;;;5095206;28;20489;-59
2022/12/19 07:09:44;;;;;;;23.00;17.53;;;3.20;99.90;;;;;;5095015;28;20471;-59
2022/12/19 07:12:11;;;;;;;20.37;16.13;;;3.20;99.90;;;;;;5095033;28;20930;-59
2022/12/19 07:14:39;;;;;;;26.97;15.70;;;3.30;99.90;;;;;;5094903;28;20973;-59
2022/12/19 07:17:06;;;;;;;24.50;16.83;;;3.30;99.90;;;;;;5095031;28;20926;-59
2022/12/19 07:19:34;;;;;;;29.17;17.30;;;3.30;99.90;;;;;;5095191;28;20475;-59
2022/12/19 07:22:04;;;;;;;23.97;15.30;;;3.40;99.90;;;;;;5094926;28;20748;-60
2022/12/19 07:24:32;;;;;;;20.10;14.80;;;3.40;99.90;;;;;;5094657;28;20572;-59
2022/12/19 07:27:00;;;;;;;21.30;14.53;;;3.30;99.90;;;;;;5094780;28;20525;-59
2022/12/19 07:29:27;;;;;;;27.03;15.60;;;3.40;99.90;;;;;;5094978;28;20516;-59
2022/12/19 07:31:55;;;;;;;24.37;15.53;;;3.40;99.90;;;;;;5094702;28;20450;-59
2022/12/19 07:34:22;;;;;;;31.43;19.40;;;3.40;99.90;;;;;;5094351;28;20443;-59
2022/12/19 07:36:52;;;;;;;23.20;15.40;;;3.40;99.90;;;;;;5094510;28;20942;-58
2022/12/19 07:39:21;;;;;;;21.60;15.30;;;3.40;99.90;;;;;;5094392;28;20486;-59
2022/12/19 07:41:49;;;;;;;21.90;16.13;;;3.40;99.90;;;;;;5094380;28;20443;-59
2022/12/19 07:44:16;;;;;;;22.90;15.67;;;3.40;99.90;;;;;;5094251;28;20451;-59
2022/12/19 07:46:44;;;;;;;22.67;15.60;;;3.40;99.90;;;;;;5094369;28;20475;-59
2022/12/19 07:49:11;;;;;;;25.27;17.20;;;3.50;99.90;;;;;;5094200;28;20500;-59
2022/12/19 07:51:39;;;;;;;21.67;15.97;;;;;;;;;;5094783;28;20447;-59
2022/12/19 07:54:06;;;;;;;23.90;16.03;;;3.50;99.90;;;;;;5094370;28;20477;-59
2022/12/19 07:56:35;;;;;;;24.47;16.60;;;3.50;99.90;;;;;;5094527;28;20522;-59
2022/12/19 07:59:02;;;;;;;21.03;14.80;;;3.60;99.90;;;;;;5094001;28;20816;-58
2022/12/19 08:01:30;;;;;;;29.77;17.30;;;3.60;99.90;;;;;;5094102;28;20572;-58
2022/12/19 08:03:57;;;;;;;26.93;16.60;;;3.50;99.90;;;;;;5093945;28;20448;-58
2022/12/19 08:06:24;;;;;;;24.93;15.30;;;3.50;99.90;;;;;;5093921;28;20483;-58
2022/12/19 08:08:52;;;;;;;28.83;16.70;;;3.60;99.90;;;;;;5094466;28;20463;-58
2022/12/19 08:11:25;;;;;;;26.50;17.43;;;3.50;99.90;;;;;;5094204;28;20459;-58
2022/12/19 08:13:55;;;;;;;22.97;15.60;;;3.50;99.90;;;;;;5093781;28;20432;-58
2022/12/19 08:16:22;;;;;;;24.27;17.20;;;3.50;99.90;;;;;;5093868;28;20446;-58
2022/12/19 08:18:50;;;;;;;26.97;17.60;;;3.60;99.90;;;;;;5094016;28;20443;-59
2022/12/19 08:21:17;;;;;;;35.33;16.87;;;3.60;99.90;;;;;;5093741;28;20467;-59
2022/12/19 08:23:44;;;;;;;23.70;15.97;;;3.60;99.90;;;;;;5093942;28;20497;-59
2022/12/19 08:26:14;;;;;;;26.97;15.87;;;3.60;99.90;;;;;;5094021;28;20487;-59
2022/12/19 08:28:42;;;;;;;25.83;16.60;;;3.70;99.90;;;;;;5093680;28;20450;-59
2022/12/19 08:31:12;;;;;;;38.27;16.60;;;3.70;99.90;;;;;;5093590;28;20463;-59
2022/12/19 08:33:39;;;;;;;19.80;14.93;;;3.70;99.90;;;;;;5092757;28;20959;-59
2022/12/19 08:36:08;;;;;;;21.37;15.80;;;3.70;99.90;;;;;;5093880;28;20443;-59
2022/12/19 08:38:36;;;;;;;24.37;14.50;;;3.70;99.90;;;;;;5093879;28;20922;-59
2022/12/19 08:41:03;;;;;;;22.73;15.80;;;3.70;99.90;;;;;;5093370;28;20483;-59
2022/12/19 08:43:31;;;;;;;24.70;15.67;;;3.80;99.90;;;;;;5093633;28;20806;-59
2022/12/19 08:45:58;;;;;;;22.97;14.53;;;3.90;99.90;;;;;;5093269;28;20483;-59
2022/12/19 08:48:27;;;;;;;23.93;16.73;;;3.90;99.90;;;;;;5093807;28;20455;-59
2022/12/19 08:50:56;;;;;;;21.33;14.80;;;3.90;99.90;;;;;;5093385;28;20483;-58
2022/12/19 08:53:24;;;;;;;26.90;16.13;;;4.00;99.90;;;;;;5093304;28;20447;-59
2022/12/19 08:55:55;;;;;;;23.53;15.20;;;4.00;99.90;;;;;;5093436;28;20547;-59
2022/12/19 08:58:23;;;;;;;19.73;14.60;;;4.00;99.90;;;;;;5093315;28;21011;-59
2022/12/19 09:00:52;;;;;;;21.73;15.70;;;4.00;99.90;;;;;;5093156;28;20469;-59
2022/12/19 09:03:19;;;;;;;19.90;14.03;;;4.00;99.90;;;;;;5093164;28;20542;-58
2022/12/19 09:05:56;;;;;;;18.57;13.50;;;4.10;99.90;;;;;;5093268;28;20443;-58
2022/12/19 09:08:23;;;;;;;24.00;16.57;;;4.10;99.90;;;;;;5093472;28;20465;-58
2022/12/19 09:10:51;;;;;;;19.77;13.83;;;4.20;99.90;;;;;;5093207;28;20538;-58
2022/12/19 09:13:19;;;;;;;21.63;13.27;;;4.30;99.90;;;;;;5093315;28;20451;-59
2022/12/19 09:15:46;;;;;;;19.70;15.77;;;4.40;99.90;;;;;;5093386;28;20811;-59
2022/12/19 09:18:14;;;;;;;22.10;14.87;;;4.50;99.90;;;;;;5093125;28;20447;-59
2022/12/19 09:20:41;;;;;;;17.20;12.50;;;4.40;99.90;;;;;;5093312;28;20468;-59
2022/12/19 09:23:10;;;;;;;19.97;14.60;;;4.50;99.90;;;;;;5093241;28;20448;-59
2022/12/19 09:25:37;;;;;;;18.87;14.70;;;4.60;99.90;;;;;;5093179;28;20790;-58
2022/12/19 09:28:05;;;;;;;21.47;14.50;;;4.70;99.90;;;;;;5093012;28;20444;-59
2022/12/19 09:30:32;;;;;;;18.57;12.07;;;4.70;99.90;;;;;;5092801;28;20474;-59
2022/12/19 09:32:59;;;;;;;17.80;12.53;;;4.90;99.90;;;;;;5093120;28;20979;-58
2022/12/19 09:35:27;;;;;;;15.87;10.97;;;5.00;99.90;;;;;;5092779;28;20451;-59
2022/12/19 09:37:54;;;;;;;17.20;12.67;;;5.00;99.90;;;;;;5093427;28;20458;-58
2022/12/19 09:40:23;;;;;;;21.53;12.60;;;5.10;99.90;;;;;;5092594;28;20533;-58
2022/12/19 09:43:02;;;;;;;19.70;14.03;;;5.20;99.90;;;;;;5092632;28;20526;-58
2022/12/19 09:45:41;;;;;;;19.00;14.90;;;5.30;99.90;;;;;;5096327;28;20803;-58
2022/12/19 09:48:14;;;;;;;18.37;13.50;;;5.30;99.90;;;;;;5096410;28;20957;-58
2022/12/19 09:50:49;;;;;;;17.00;12.83;;;5.30;99.90;;;;;;5096928;28;20467;-59
2022/12/19 09:53:23;;;;;;;19.10;13.00;;;5.30;99.90;;;;;;5096464;28;20439;-58
2022/12/19 09:55:54;;;;;;;17.07;11.70;;;5.40;99.90;;;;;;5096940;28;20424;-59
2022/12/19 09:58:32;;;;;;;17.90;12.73;;;5.30;99.90;;;;;;5096973;28;20427;-61
2022/12/19 10:01:03;;;;;;;21.53;13.43;;;5.40;99.90;;;;;;5096631;28;20481;-58
2022/12/19 10:03:34;;;;;;;17.47;12.40;;;5.30;99.90;;;;;;5096547;28;20434;-58
2022/12/19 10:06:07;;;;;;;21.13;14.83;;;5.30;99.90;;;;;;5096449;28;20898;-58
2022/12/19 10:08:37;;;;;;;16.10;12.30;;;5.40;99.90;;;;;;5096566;28;20455;-58
2022/12/19 10:11:09;;;;;;;25.17;14.10;;;5.50;99.90;;;;;;5096172;28;20459;-58
2022/12/19 10:13:51;;;;;;;18.77;13.27;;;5.60;99.90;;;;;;5095983;28;20469;-59
2022/12/19 10:16:26;;;;;;;17.67;12.90;;;5.90;99.90;;;;;;5096219;28;20480;-59
2022/12/19 10:18:56;;;;;;;17.47;13.03;;;6.00;99.90;;;;;;5096126;28;20440;-59
2022/12/19 10:21:34;;;;;;;15.90;14.20;;;6.00;99.90;;;;;;5096073;28;20447;-59
2022/12/19 10:24:24;;;;;;;16.53;13.07;;;5.90;99.90;;;;;;5096146;28;20446;-59
2022/12/19 10:26:58;;;;;;;19.07;13.17;;;5.90;99.90;;;;;;5095940;28;20983;-59
2022/12/19 10:29:54;;;;;;;20.33;13.73;;;5.90;99.90;;;;;;5096125;28;20463;-58
2022/12/19 10:32:29;;;;;;;20.93;13.90;;;6.00;99.90;;;;;;5086622;28;20451;-58
2022/12/19 10:34:56;;;;;;;19.80;13.33;;;6.00;99.90;;;;;;5095748;28;20432;-59
2022/12/19 10:37:26;;;;;;;23.40;13.70;;;5.90;99.90;;;;;;5095938;28;20465;-59
2022/12/19 10:40:02;;;;;;;16.53;13.67;;;6.00;99.90;;;;;;5095662;28;20471;-58
2022/12/19 10:42:36;;;;;;;16.13;11.83;;;5.90;99.90;;;;;;5095374;28;20522;-58
2022/12/19 10:45:11;;;;;;;16.27;13.80;;;6.10;99.90;;;;;;5095819;28;20431;-60
2022/12/19 10:47:40;;;;;;;17.00;12.23;;;6.30;99.90;;;;;;5095711;28;20467;-59
2022/12/19 10:50:12;;;;;;;17.03;13.27;;;6.60;99.90;;;;;;5095626;28;20954;-58
2022/12/19 10:52:50;;;;;;;13.20;11.63;;;7.00;99.90;;;;;;5095444;28;20455;-59
2022/12/19 10:55:41;;;;;;;14.97;11.87;;;7.40;99.90;;;;;;5095197;28;20898;-58
2022/12/19 10:58:27;;;;;;;20.23;13.30;;;7.40;99.90;;;;;;5082927;28;20454;-58
2022/12/19 11:01:09;;;;;;;19.33;14.20;;;7.40;99.90;;;;;;5095644;28;20563;-60
2022/12/19 11:03:38;;;;;;;17.33;12.83;;;7.60;99.90;;;;;;5095499;28;20837;-59
2022/12/19 11:06:06;;;;;;;19.40;12.80;;;7.60;99.90;;;;;;5095105;28;20443;-61
2022/12/19 11:08:35;;;;;;;18.93;14.17;;;7.40;99.90;;;;;;5095671;28;20453;-59
2022/12/19 11:11:13;;;;;;;14.40;11.97;;;7.30;99.90;;;;;;5095362;28;20957;-59
2022/12/19 11:13:44;;;;;;;15.17;12.23;;;7.40;99.90;;;;;;5094999;28;20470;-60
2022/12/19 11:16:13;;;;;;;17.77;13.10;;;7.40;99.90;;;;;;5094962;28;20428;-60
2022/12/19 11:18:43;;;;;;;16.07;11.10;;;7.20;99.90;;;;;;5094980;28;20796;-60
2022/12/19 11:21:18;;;;;;;15.63;10.50;;;7.10;99.90;;;;;;5095058;28;20478;-60
2022/12/19 11:23:52;;;;;;;14.30;11.80;;;7.10;99.90;;;;;;5095062;28;20462;-59
2022/12/19 11:26:35;;;;;;;14.50;11.50;;;7.10;99.90;;;;;;5094996;28;20447;-60
2022/12/19 11:29:16;;;;;;;15.93;11.37;;;7.10;99.90;;;;;;5094619;28;20457;-60
2022/12/19 11:31:46;;;;;;;17.70;12.37;;;7.10;99.90;;;;;;5094853;28;20486;-59
2022/12/19 11:34:16;;;;;;;15.53;11.07;;;7.20;99.90;;;;;;5094637;28;20473;-60
2022/12/19 11:36:49;;;;;;;13.73;11.40;;;7.20;99.90;;;;;;5094682;28;20432;-59
2022/12/19 11:39:21;;;;;;;12.63;9.93;;;7.20;99.90;;;;;;5094414;28;20843;-60
2022/12/19 11:41:57;;;;;;;15.00;11.20;;;7.20;99.90;;;;;;5094663;28;20453;-60
2022/12/19 11:44:32;;;;;;;14.40;11.57;;;7.20;99.90;;;;;;5094463;28;20501;-60
2022/12/19 11:47:11;;;;;;;17.67;10.67;;;7.30;99.90;;;;;;5094412;28;20551;-59
2022/12/19 11:49:43;;;;;;;18.23;11.80;;;7.30;99.90;;;;;;5094671;28;20459;-59
2022/12/19 11:52:18;;;;;;;13.27;10.80;;;7.30;99.90;;;;;;5094485;28;20428;-59
2022/12/19 11:54:56;;;;;;;17.50;11.47;;;7.30;99.90;;;;;;5094520;28;20481;-60
2022/12/19 11:57:25;;;;;;;15.63;12.30;;;7.40;99.90;;;;;;5094033;28;20424;-60
2022/12/19 11:59:54;;;;;;;13.43;10.77;;;7.30;99.90;;;;;;5093925;28;20471;-61
2022/12/19 12:03:03;;;;;;;15.80;11.53;;;7.20;99.90;;;;;;5094002;28;20934;-59
2022/12/19 12:05:44;;;;;;;12.10;10.33;;;7.20;99.90;;;;;;5093978;28;20930;-58
2022/12/19 12:08:39;;;;;;;15.03;11.13;;;7.20;99.90;;;;;;5093253;28;20544;-58
2022/12/19 12:11:22;;;;;;;13.57;11.53;;;7.20;99.90;;;;;;5093737;28;20459;-59
2022/12/19 12:14:09;;;;;;;23.00;11.00;;;7.10;99.90;;;;;;5093979;28;20431;-59
2022/12/19 12:16:45;;;;;;;14.70;11.73;;;7.30;99.90;;;;;;5094098;28;20424;-59
2022/12/19 12:19:22;;;;;;;13.47;11.87;;;7.30;99.90;;;;;;5093747;28;20424;-59
2022/12/19 12:21:58;;;;;;;17.23;11.57;;;7.50;99.90;;;;;;5093478;28;20760;-59
2022/12/19 12:24:44;;;;;;;13.83;11.70;;;7.50;99.90;;;;;;5094105;28;20459;-60
2022/12/19 12:27:28;;;;;;;14.93;11.73;;;7.70;99.90;;;;;;5094015;28;20506;-60
2022/12/19 12:30:02;;;;;;;14.30;11.23;;;7.70;99.90;;;;;;5093872;28;20506;-59
2022/12/19 12:33:00;;;;;;;15.13;12.80;;;7.70;99.90;;;;;;5093904;28;20435;-59
2022/12/19 12:35:35;;;;;;;16.03;11.87;;;7.60;99.90;;;;;;5093554;28;20488;-60
2022/12/19 12:38:18;;;;;;;17.20;12.00;;;7.60;99.90;;;;;;5093824;28;20541;-60
2022/12/19 12:41:07;;;;;;;14.87;11.70;;;7.60;99.90;;;;;;5093119;28;20490;-59
2022/12/19 12:43:56;;;;;;;16.43;11.33;;;7.70;99.90;;;;;;5092866;28;20463;-59
2022/12/19 12:46:27;;;;;;;14.00;12.07;;;7.70;99.90;;;;;;5093376;28;20477;-59
2022/12/19 12:49:00;;;;;;;12.53;10.97;;;7.70;99.90;;;;;;5093646;28;20942;-59
2022/12/19 12:51:27;;;;;;;15.77;11.33;;;7.80;99.90;;;;;;5093470;28;20503;-59
2022/12/19 12:54:02;;;;;;;16.20;11.70;;;7.90;99.90;;;;;;5093266;28;20883;-60
2022/12/19 12:56:29;;;;;;;16.80;12.17;;;8.00;99.90;;;;;;5093064;28;20957;-59